St Annes, United Kingdom
Current Conditions -  °F | °C
As of 6:50 PM on Tuesday 21 Oct 2014 (Local Time) from EGNO Reporting Station
Rain Showers Rain Showers  
Wind Chill: 40°   Ceiling: 3300
Heat Index: 48°   Visibility: 6mi
Dew Point: 36°   Wind: 25mph
Humidity: 62%   Direction: 320°NW
Pressure: 29.91"   Gusts: 46mph
Location:  53.75°N, 3.02°W
Report Text: EGNO 211750Z 32022G40KT 290V350 9999 VCSH FEW013 SCT026CBBKN033 09/02 Q1013
Loading
Personal Weather Stations






























Interactive Weather Map
Tropical Storm Tracking
New forecast layout! Learn more

10-Day Weather Forecast

Advertisements
Track Severe Weather on mobile